Doc Maynard — WDI3125 — position and weather

sailwx.info

Track history (hours):
 
Tides and Currents Weather Stations Pressure Air Temp Water Temp Dewpoint Dewpoint Depression Visibility Wind Speed Wind Dir Waves Ship Positions

Doc Maynard

Owner: King County Marine Division, Seattle, WA. More information available from US FCC via Universal Licensing System and Coast Guard Vessel Documentation Center.

Last reported at 2018-Feb-22 10:57 UTC. Time now 2018-Feb-22 11:15 UTC.
Position N 47°36' W 122°20'.

Length 31 m.

Type: Passenger vessel. MMSI: 338224000.

Date/timePositionNaut miles runAvg speedWind from/ knotsBaromVisibWave heightAir tempDewpointWater temp
2018-Feb-22 10:57N 47°36' W 122°20'0 0.0
2018-Feb-22 10:27N 47°36' W 122°20'0 0.0
2018-Feb-22 09:51N 47°36' W 122°20'0 0.0
2018-Feb-22 09:27N 47°36' W 122°20'0 0.0
2018-Feb-22 08:57N 47°36' W 122°20'0 0.0
2018-Feb-22 07:51N 47°36' W 122°20'0 0.0
2018-Feb-22 07:27N 47°36' W 122°20'0 0.0
2018-Feb-22 06:57N 47°36' W 122°20'0 0.0
2018-Feb-22 04:57N 47°36' W 122°20'0 0.0
2018-Feb-22 04:27N 47°36' W 122°20'0 0.0
2018-Feb-22 03:57N 47°36' W 122°20'0 0.3
2018-Feb-22 03:30N 47°36' W 122°20'714.3
2018-Feb-22 03:00N 47°31' W 122°28'710.4
2018-Feb-22 02:19N 47°36' W 122°20'723.7
2018-Feb-22 02:00N 47°31' W 122°28'711.8
2018-Feb-22 01:23N 47°36' W 122°20'718.8
2018-Feb-22 01:00N 47°31' W 122°28'7 8.4
2018-Feb-22 00:11N 47°36' W 122°21'0 1.1
2018-Feb-22 00:00N 47°36' W 122°20'0 0.0
2018-Feb-21 23:17N 47°36' W 122°20'0 0.0
2018-Feb-21 22:53N 47°36' W 122°20'0 0.0
2018-Feb-21 22:29N 47°36' W 122°20'0 0.0
2018-Feb-21 21:59N 47°36' W 122°20'0 0.0
2018-Feb-21 21:26N 47°36' W 122°20'0 0.0
2018-Feb-21 20:53N 47°36' W 122°20'0 0.0
2018-Feb-21 20:29N 47°36' W 122°20'0 0.0
2018-Feb-21 19:59N 47°36' W 122°20'0 0.0
2018-Feb-21 19:29N 47°36' W 122°20'0 0.0
2018-Feb-21 17:41N 47°36' W 122°20'1 5.6
2018-Feb-21 17:31N 47°35' W 122°21'1 1.9
2018-Feb-21 17:00N 47°36' W 122°21'2 4.1
2018-Feb-21 16:31N 47°36' W 122°24'510.5
2018-Feb-21 16:01N 47°32' W 122°28'612.8
2018-Feb-21 15:31N 47°37' W 122°22'714.4
2018-Feb-21 15:01N 47°31' W 122°28'714.6
2018-Feb-21 14:30N 47°36' W 122°21'715.0
2018-Feb-21 14:01N 47°31' W 122°28'710.8
2018-Feb-21 13:19N 47°36' W 122°20'0 0.7
2018-Feb-21 13:00N 47°36' W 122°20'0 0.0
2018-Feb-21 12:29N 47°36' W 122°20'0 0.0
2018-Feb-21 11:59N 47°36' W 122°20'0 0.0
2018-Feb-21 11:29N 47°36' W 122°20'0 0.0
2018-Feb-21 10:59N 47°36' W 122°20'0 0.0
2018-Feb-21 10:29N 47°36' W 122°20'0 0.0
2018-Feb-21 09:59N 47°36' W 122°20'0 0.0
2018-Feb-21 09:29N 47°36' W 122°20'0 0.0
2018-Feb-21 08:53N 47°36' W 122°20'0 0.0
2018-Feb-21 08:29N 47°36' W 122°20'0 0.0
2018-Feb-21 07:53N 47°36' W 122°20'0 0.0
2018-Feb-21 07:29N 47°36' W 122°20'0 0.0
2018-Feb-21 06:59N 47°36' W 122°20'0 0.0
2018-Feb-21 06:23N 47°36' W 122°20'0 0.0
2018-Feb-21 05:41N 47°36' W 122°20'0 0.0
2018-Feb-21 05:29N 47°36' W 122°20'0 0.0
2018-Feb-21 04:53N 47°36' W 122°20'0 0.0
2018-Feb-21 04:29N 47°36' W 122°20'0 0.0
2018-Feb-21 03:56N 47°36' W 122°20'0 0.6
2018-Feb-21 03:30N 47°36' W 122°21'715.2
2018-Feb-21 03:01N 47°31' W 122°28'710.2
2018-Feb-21 02:17N 47°36' W 122°21'724.9
2018-Feb-21 02:01N 47°31' W 122°28'713.9
2018-Feb-21 01:30N 47°36' W 122°20'714.9
2018-Feb-21 01:01N 47°31' W 122°28'714.6
2018-Feb-21 00:30N 47°36' W 122°20'0 0.4
2018-Feb-21 00:00N 47°36' W 122°20'0 0.0
2018-Feb-20 23:20N 47°36' W 122°20'0 0.0
2018-Feb-20 22:56N 47°36' W 122°20'0 0.0
2018-Feb-20 22:26N 47°36' W 122°20'0 0.0
2018-Feb-20 18:11N 47°36' W 122°20'1 5.7
2018-Feb-20 18:00N 47°35' W 122°21'1 2.0
2018-Feb-20 17:28N 47°36' W 122°20'0 0.0
2018-Feb-20 17:00N 47°36' W 122°20'2 4.5
2018-Feb-20 16:31N 47°36' W 122°24'611.8
2018-Feb-20 16:01N 47°31' W 122°28'714.2
2018-Feb-20 15:30N 47°37' W 122°22'714.3
2018-Feb-20 15:01N 47°31' W 122°28'714.8
2018-Feb-20 14:30N 47°36' W 122°21'715.0
2018-Feb-20 14:01N 47°31' W 122°28'813.1
2018-Feb-20 13:26N 47°36' W 122°20'0 0.1
2018-Feb-20 11:41N 47°36' W 122°20'0 0.0
2018-Feb-20 04:26N 47°36' W 122°20'0 0.0
2018-Feb-20 03:53N 47°36' W 122°20'0 0.0
2018-Feb-20 03:29N 47°36' W 122°20'0 0.0
2018-Feb-20 02:59N 47°36' W 122°20'0 0.0
2018-Feb-20 02:29N 47°36' W 122°20'0 0.0
2018-Feb-20 01:59N 47°36' W 122°20'0 0.0
2018-Feb-20 01:29N 47°36' W 122°20'0 0.0
2018-Feb-20 00:59N 47°36' W 122°20'0 0.0
2018-Feb-20 00:29N 47°36' W 122°20'0 0.0
2018-Feb-20 00:00N 47°36' W 122°20'0 0.0
2018-Feb-19 23:29N 47°36' W 122°20'0 0.0
2018-Feb-19 22:57N 47°36' W 122°20'0 0.0
2018-Feb-19 22:26N 47°36' W 122°20'0 0.0
2018-Feb-19 21:16N 47°36' W 122°20'0 0.0
2018-Feb-19 20:59N 47°36' W 122°20'0 0.0
2018-Feb-19 20:24N 47°36' W 122°20'0 0.0
2018-Feb-19 19:59N 47°36' W 122°20'0 0.0
2018-Feb-19 19:25N 47°36' W 122°20'0 0.0
2018-Feb-19 19:00N 47°36' W 122°20'0 0.0
2018-Feb-19 18:26N 47°36' W 122°20'0 0.0
2018-Feb-19 17:58N 47°36' W 122°20'0 0.0
2018-Feb-19 17:29N 47°36' W 122°20'0 0.0
2018-Feb-19 16:50N 47°36' W 122°20'0 0.0
2018-Feb-19 16:29N 47°36' W 122°20'0 0.0
2018-Feb-19 15:59N 47°36' W 122°20'0 0.0
2018-Feb-19 15:26N 47°36' W 122°20'0 0.0
2018-Feb-19 14:59N 47°36' W 122°20'0 0.0
2018-Feb-19 14:20N 47°36' W 122°20'0 0.0
2018-Feb-19 13:59N 47°36' W 122°20'0 0.0
2018-Feb-19 13:29N 47°36' W 122°20'0 0.0
2018-Feb-19 12:59N 47°36' W 122°20'0 0.0
2018-Feb-19 12:29N 47°36' W 122°20'0 0.0
2018-Feb-19 11:59N 47°36' W 122°20'0 0.0
2018-Feb-19 11:29N 47°36' W 122°20'0 0.0
2018-Feb-19 10:47N 47°36' W 122°20'0 0.0
2018-Feb-19 06:08N 47°36' W 122°20'0 0.0
2018-Feb-19 05:47N 47°36' W 122°20'0 0.0
2018-Feb-19 05:29N 47°36' W 122°20'0 0.0
2018-Feb-19 04:59N 47°36' W 122°20'0 0.0
2018-Feb-19 03:44N 47°36' W 122°20'0 0.0
2018-Feb-19 03:23N 47°36' W 122°20'0 0.0
2018-Feb-19 02:59N 47°36' W 122°20'0 0.0
2018-Feb-19 02:26N 47°36' W 122°20'0 0.0
2018-Feb-19 01:56N 47°36' W 122°20'0 0.0
2018-Feb-19 01:23N 47°36' W 122°20'0 0.0
2018-Feb-19 00:59N 47°36' W 122°20'0 0.0
2018-Feb-18 17:23N 47°36' W 122°20'0 0.0
2018-Feb-18 16:59N 47°36' W 122°20'0 0.0
2018-Feb-18 16:23N 47°36' W 122°20'0 0.0
2018-Feb-18 15:59N 47°36' W 122°20'0 0.0
2018-Feb-18 15:23N 47°36' W 122°20'0 0.0
2018-Feb-18 14:59N 47°36' W 122°20'0 0.0
2018-Feb-18 14:29N 47°36' W 122°20'0 0.0
2018-Feb-18 13:59N 47°36' W 122°20'0 0.0
2018-Feb-18 13:29N 47°36' W 122°20'0 0.0
2018-Feb-18 12:59N 47°36' W 122°20'0 0.0
2018-Feb-18 12:23N 47°36' W 122°20'0 0.0
2018-Feb-18 10:59N 47°36' W 122°20'0 0.0
2018-Feb-18 10:29N 47°36' W 122°20'0 0.0
2018-Feb-18 09:59N 47°36' W 122°20'0 0.0
2018-Feb-18 09:23N 47°36' W 122°20'0 0.0
2018-Feb-18 08:59N 47°36' W 122°20'0 0.0
2018-Feb-18 08:23N 47°36' W 122°20'0 0.0
2018-Feb-18 04:53N 47°36' W 122°20'0 0.0
2018-Feb-18 04:23N 47°36' W 122°20'0 0.0
2018-Feb-18 03:47N 47°36' W 122°20'0 0.0
2018-Feb-18 03:26N 47°36' W 122°20'0 0.0
2018-Feb-18 02:59N 47°36' W 122°20'0 0.0
2018-Feb-18 02:29N 47°36' W 122°20'0 0.0
2018-Feb-18 01:53N 47°36' W 122°20'0 0.0
2018-Feb-18 01:29N 47°36' W 122°20'0 0.0
2018-Feb-18 00:59N 47°36' W 122°20'0 0.0
2018-Feb-18 00:23N 47°36' W 122°20'0 0.0
2018-Feb-17 23:56N 47°36' W 122°20'0 0.0
2018-Feb-17 23:29N 47°36' W 122°20'0 0.0
2018-Feb-17 22:59N 47°36' W 122°20'0 0.0
2018-Feb-17 20:23N 47°36' W 122°20'0 0.0
2018-Feb-17 18:59N 47°36' W 122°20'0 0.0
2018-Feb-17 18:05N 47°36' W 122°20'0 0.0
2018-Feb-17 17:59N 47°36' W 122°20'0 0.0
2018-Feb-17 16:35N 47°36' W 122°20'0 0.0
2018-Feb-17 16:17N 47°36' W 122°20'0 0.0
2018-Feb-17 15:59N 47°36' W 122°20'0 0.0
2018-Feb-17 14:47N 47°36' W 122°20'0 0.0
2018-Feb-17 14:23N 47°36' W 122°20'0 0.0
2018-Feb-17 13:59N 47°36' W 122°20'0 0.0
2018-Feb-17 13:23N 47°36' W 122°20'0 0.0
2018-Feb-17 12:59N 47°36' W 122°20'0 0.0
2018-Feb-17 12:29N 47°36' W 122°20'0 0.0
2018-Feb-17 11:59N 47°36' W 122°20'0 0.0
2018-Feb-17 08:17N 47°36' W 122°20'0 0.0
2018-Feb-17 07:53N 47°36' W 122°20'0 0.0
2018-Feb-17 07:08N 47°36' W 122°20'0 0.0
2018-Feb-17 06:59N 47°36' W 122°20'0 0.0
2018-Feb-17 06:29N 47°36' W 122°20'0 0.0
2018-Feb-17 05:44N 47°36' W 122°20'0 0.0
2018-Feb-17 03:29N 47°36' W 122°20'2 3.9
2018-Feb-17 03:00N 47°35' W 122°23'1 2.9
2018-Feb-17 02:31N 47°36' W 122°21'0 0.9
2018-Feb-17 01:59N 47°36' W 122°20'1 1.8
2018-Feb-17 01:30N 47°36' W 122°22'1 1.9
2018-Feb-17 01:00N 47°35' W 122°23'1 1.3
2018-Feb-17 00:31N 47°36' W 122°22'1 2.1
2018-Feb-16 23:57N 47°36' W 122°20'0 0.2
2018-Feb-16 23:28N 47°36' W 122°21'0 0.1
2018-Feb-16 19:19N 47°36' W 122°20'0 0.0
2018-Feb-16 18:55N 47°36' W 122°20'0 0.0
2018-Feb-16 17:38N 47°36' W 122°20'0 1.5
2018-Feb-16 17:30N 47°36' W 122°20'2 3.7
2018-Feb-16 17:00N 47°35' W 122°23'0 0.0
2018-Feb-16 16:30N 47°35' W 122°23'0 0.0
2018-Feb-16 16:00N 47°35' W 122°23'1 2.1
2018-Feb-16 15:30N 47°36' W 122°22'1 2.3
2018-Feb-16 15:00N 47°36' W 122°20'0 0.0
2018-Feb-16 14:26N 47°36' W 122°20'0 0.1
2018-Feb-16 13:51N 47°36' W 122°20'0 0.0
2018-Feb-16 09:25N 47°36' W 122°20'0 0.0
2018-Feb-16 08:37N 47°36' W 122°20'0 0.0
2018-Feb-16 08:22N 47°36' W 122°20'0 0.0
2018-Feb-16 07:37N 47°36' W 122°20'0 0.0
2018-Feb-16 03:28N 47°36' W 122°20'2 3.9
2018-Feb-16 03:00N 47°35' W 122°23'1 1.1
2018-Feb-16 02:31N 47°36' W 122°22'1 2.2
2018-Feb-16 01:55N 47°36' W 122°20'1 1.9
2018-Feb-16 01:31N 47°36' W 122°21'1 2.1
2018-Feb-16 01:00N 47°35' W 122°23'1 1.9
2018-Feb-16 00:31N 47°36' W 122°22'1 1.7
2018-Feb-15 23:55N 47°36' W 122°20'1 1.3
2018-Feb-15 23:30N 47°36' W 122°21'1 1.2
2018-Feb-15 23:00N 47°36' W 122°20'0 0.0
2018-Feb-15 22:30N 47°36' W 122°20'0 0.0
2018-Feb-15 22:00N 47°36' W 122°20'0 0.0
2018-Feb-15 21:27N 47°36' W 122°20'0 0.0
2018-Feb-15 20:34N 47°36' W 122°20'0 0.0
2018-Feb-15 20:28N 47°36' W 122°20'0 0.0
2018-Feb-15 19:58N 47°36' W 122°20'0 0.0
2018-Feb-15 19:29N 47°36' W 122°20'0 0.0
2018-Feb-15 18:59N 47°36' W 122°20'0 0.0
2018-Feb-15 18:29N 47°36' W 122°20'0 0.0
2018-Feb-15 17:56N 47°36' W 122°20'0 0.4
2018-Feb-15 17:19N 47°36' W 122°21'2 5.6
2018-Feb-15 17:01N 47°35' W 122°23'0 0.0
2018-Feb-15 16:30N 47°35' W 122°23'0 0.0
2018-Feb-15 16:00N 47°35' W 122°23'1 1.2
2018-Feb-15 15:31N 47°36' W 122°22'1 2.4
2018-Feb-15 14:59N 47°36' W 122°21'0 0.1
2018-Feb-15 14:23N 47°36' W 122°20'1 2.6
2018-Feb-15 14:01N 47°36' W 122°22'1 2.0
2018-Feb-15 13:28N 47°36' W 122°20'0 0.0
2018-Feb-15 12:58N 47°36' W 122°20'0 0.0
2018-Feb-15 12:28N 47°36' W 122°20'0 0.0
2018-Feb-15 11:58N 47°36' W 122°20'0 0.0
2018-Feb-15 08:55N 47°36' W 122°20'0 0.0
2018-Feb-15 08:28N 47°36' W 122°20'0 0.0
2018-Feb-15 07:58N 47°36' W 122°20'0 0.0
2018-Feb-15 07:28N 47°36' W 122°20'0 0.0
2018-Feb-15 06:55N 47°36' W 122°20'0 0.0
2018-Feb-15 06:16N 47°36' W 122°20'0 0.0
2018-Feb-15 05:55N 47°36' W 122°20'0 0.0
2018-Feb-15 05:28N 47°36' W 122°20'0 0.0
2018-Feb-15 03:26N 47°36' W 122°20'2 4.3
2018-Feb-15 03:00N 47°35' W 122°23'1 1.9
2018-Feb-15 02:31N 47°36' W 122°22'1 1.4
2018-Feb-15 01:54N 47°36' W 122°20'0 0.7
2018-Feb-15 01:31N 47°36' W 122°21'2 3.0
2018-Feb-15 01:00N 47°35' W 122°23'0 0.9
2018-Feb-15 00:31N 47°36' W 122°22'1 2.2
2018-Feb-14 23:54N 47°36' W 122°20'1 1.7
2018-Feb-14 23:30N 47°36' W 122°21'1 1.3
2018-Feb-14 22:57N 47°36' W 122°20'0 0.0
2018-Feb-14 22:25N 47°36' W 122°20'0 0.0
2018-Feb-14 20:27N 47°36' W 122°20'0 0.0
2018-Feb-14 19:33N 47°36' W 122°20'0 0.0
2018-Feb-14 18:37N 47°36' W 122°20'0 0.0
2018-Feb-14 18:18N 47°36' W 122°20'1 3.4
2018-Feb-14 18:01N 47°35' W 122°21'1 1.4
2018-Feb-14 17:17N 47°36' W 122°21'2 5.9
2018-Feb-14 17:01N 47°35' W 122°23'0 0.0
2018-Feb-14 16:30N 47°35' W 122°23'0 0.0
2018-Feb-14 15:59N 47°35' W 122°23'1 1.1
2018-Feb-14 15:31N 47°36' W 122°22'1 2.3
2018-Feb-14 14:58N 47°36' W 122°21'0 0.3
2018-Feb-14 14:22N 47°36' W 122°21'0 0.9
2018-Feb-14 14:00N 47°36' W 122°21'1 1.2
2018-Feb-14 13:29N 47°36' W 122°20'0 0.0
2018-Feb-14 11:57N 47°36' W 122°20'0 0.0
2018-Feb-14 10:15N 47°36' W 122°20'0 0.0
2018-Feb-14 09:57N 47°36' W 122°20'0 0.0
2018-Feb-14 08:21N 47°36' W 122°20'0 0.0
2018-Feb-14 08:00N 47°36' W 122°20'0 0.0
2018-Feb-14 07:24N 47°36' W 122°20'0 0.0
2018-Feb-14 07:00N 47°36' W 122°20'0 0.0
2018-Feb-14 06:27N 47°36' W 122°20'0 0.0
2018-Feb-14 05:57N 47°36' W 122°20'0 0.0
2018-Feb-14 05:09N 47°36' W 122°20'0 0.0
2018-Feb-14 04:48N 47°36' W 122°20'0 0.0
2018-Feb-14 04:30N 47°36' W 122°20'0 0.0
2018-Feb-14 04:00N 47°36' W 122°20'0 0.0
2018-Feb-14 03:27N 47°36' W 122°20'2 4.1
2018-Feb-14 03:00N 47°35' W 122°23'1 1.8
2018-Feb-14 02:31N 47°36' W 122°22'1 1.3
2018-Feb-14 01:53N 47°36' W 122°21'0 0.4
2018-Feb-14 01:30N 47°36' W 122°21'2 3.1
2018-Feb-14 01:00N 47°35' W 122°23'1 1.6
2018-Feb-14 00:31N 47°36' W 122°22'1 1.2
2018-Feb-13 23:54N 47°36' W 122°21'1 1.4
2018-Feb-13 23:31N 47°36' W 122°22'1 0.2
2018-Feb-13 19:12N 47°36' W 122°20'0 0.0
2018-Feb-13 19:00N 47°36' W 122°20'0 0.0
2018-Feb-13 17:33N 47°36' W 122°20'0 3.9
2018-Feb-13 17:30N 47°36' W 122°20'2 3.7
2018-Feb-13 17:01N 47°35' W 122°23'0 0.0
2018-Feb-13 16:31N 47°35' W 122°23'0 0.0
2018-Feb-13 16:00N 47°35' W 122°23'1 1.6
2018-Feb-13 15:31N 47°36' W 122°22'1 2.1
2018-Feb-13 14:59N 47°36' W 122°20'0 0.1
2018-Feb-13 14:23N 47°36' W 122°20'1 1.7
2018-Feb-13 14:00N 47°36' W 122°21'1 1.4
2018-Feb-13 13:30N 47°36' W 122°20'0 0.0
2018-Feb-13 12:45N 47°36' W 122°20'0 0.0
2018-Feb-13 12:28N 47°36' W 122°20'0 0.0
2018-Feb-13 11:59N 47°36' W 122°20'0 0.0
2018-Feb-13 11:27N 47°36' W 122°20'0 0.0
2018-Feb-13 10:57N 47°36' W 122°20'0 0.0
2018-Feb-13 10:20N 47°36' W 122°20'0 0.0
2018-Feb-13 09:59N 47°36' W 122°20'0 0.0
2018-Feb-13 09:27N 47°36' W 122°20'0 0.0
2018-Feb-13 09:00N 47°36' W 122°20'0 0.0
2018-Feb-13 08:30N 47°36' W 122°20'0 0.0
2018-Feb-13 08:00N 47°36' W 122°20'0 0.0
2018-Feb-13 07:30N 47°36' W 122°20'0 0.0
2018-Feb-13 07:00N 47°36' W 122°20'0 0.0
2018-Feb-13 06:30N 47°36' W 122°20'0 0.0
2018-Feb-13 06:00N 47°36' W 122°20'0 0.0
2018-Feb-13 05:30N 47°36' W 122°20'0 0.0
2018-Feb-13 05:00N 47°36' W 122°20'0 0.0
2018-Feb-13 04:29N 47°36' W 122°20'0 0.0
2018-Feb-13 04:00N 47°36' W 122°20'0 0.0
2018-Feb-13 03:30N 47°36' W 122°20'2 3.7
2018-Feb-13 03:00N 47°35' W 122°23'1 2.8
2018-Feb-13 02:30N 47°36' W 122°21'1 1.0
2018-Feb-13 01:54N 47°36' W 122°20'1 1.8
2018-Feb-13 01:30N 47°36' W 122°21'1 2.2
2018-Feb-13 01:00N 47°35' W 122°23'1 1.5
2018-Feb-13 00:30N 47°36' W 122°22'1 2.3
2018-Feb-12 23:58N 47°36' W 122°20'1 2.9
2018-Feb-12 23:30N 47°36' W 122°22'1 2.6
2018-Feb-12 22:58N 47°36' W 122°20'0 0.0
2018-Feb-12 22:28N 47°36' W 122°20'0 0.0
2018-Feb-12 21:58N 47°36' W 122°20'0 0.0
2018-Feb-12 21:28N 47°36' W 122°20'0 0.0
2018-Feb-12 20:28N 47°36' W 122°20'0 0.0
2018-Feb-12 19:58N 47°36' W 122°20'0 0.0
2018-Feb-12 19:28N 47°36' W 122°20'0 0.0
2018-Feb-12 18:58N 47°36' W 122°20'0 0.0
2018-Feb-12 18:10N 47°36' W 122°20'0 0.0
2018-Feb-12 17:40N 47°36' W 122°20'0 0.9
2018-Feb-12 17:17N 47°36' W 122°21'2 6.1
2018-Feb-12 17:00N 47°35' W 122°23'0 0.0
2018-Feb-12 16:29N 47°35' W 122°23'0 0.0
2018-Feb-12 16:01N 47°35' W 122°23'1 1.3
2018-Feb-12 15:30N 47°36' W 122°22'1 2.0
2018-Feb-12 14:57N 47°36' W 122°21'0 0.2
2018-Feb-12 14:23N 47°36' W 122°20'0 0.1
2018-Feb-12 14:00N 47°36' W 122°20'0 0.4
2018-Feb-12 13:30N 47°36' W 122°20'0 0.0
2018-Feb-12 12:57N 47°36' W 122°20'0 0.0
2018-Feb-12 12:30N 47°36' W 122°20'0 0.0
2018-Feb-12 12:00N 47°36' W 122°20'0 0.0
2018-Feb-12 11:29N 47°36' W 122°20'0 0.0
2018-Feb-12 10:59N 47°36' W 122°20'  
Track history (hours):
 
Tides and Currents Weather Stations Pressure Air Temp Water Temp Dewpoint Dewpoint Depression Visibility Wind Speed Wind Dir Waves Ship Positions

Doc Maynard

Owner: King County Marine Division, Seattle, WA. More information available from US FCC via Universal Licensing System and Coast Guard Vessel Documentation Center.

Last reported at 2018-Feb-22 10:57 UTC. Time now 2018-Feb-22 11:15 UTC.
Position N 47°36' W 122°20'.

Length 31 m.

Type: Passenger vessel. MMSI: 338224000.

Date/timePositionNaut miles runAvg speedWind from/ knotsBaromVisibWave heightAir tempDewpointWater temp
2018-Feb-22 10:57N 47°36' W 122°20'0 0.0
2018-Feb-22 10:27N 47°36' W 122°20'0 0.0
2018-Feb-22 09:51N 47°36' W 122°20'0 0.0
2018-Feb-22 09:27N 47°36' W 122°20'0 0.0
2018-Feb-22 08:57N 47°36' W 122°20'0 0.0
2018-Feb-22 07:51N 47°36' W 122°20'0 0.0
2018-Feb-22 07:27N 47°36' W 122°20'0 0.0
2018-Feb-22 06:57N 47°36' W 122°20'0 0.0
2018-Feb-22 04:57N 47°36' W 122°20'0 0.0
2018-Feb-22 04:27N 47°36' W 122°20'0 0.0
2018-Feb-22 03:57N 47°36' W 122°20'0 0.3
2018-Feb-22 03:30N 47°36' W 122°20'714.3
2018-Feb-22 03:00N 47°31' W 122°28'710.4
2018-Feb-22 02:19N 47°36' W 122°20'723.7
2018-Feb-22 02:00N 47°31' W 122°28'711.8
2018-Feb-22 01:23N 47°36' W 122°20'718.8
2018-Feb-22 01:00N 47°31' W 122°28'7 8.4
2018-Feb-22 00:11N 47°36' W 122°21'0 1.1
2018-Feb-22 00:00N 47°36' W 122°20'0 0.0
2018-Feb-21 23:17N 47°36' W 122°20'0 0.0
2018-Feb-21 22:53N 47°36' W 122°20'0 0.0
2018-Feb-21 22:29N 47°36' W 122°20'0 0.0
2018-Feb-21 21:59N 47°36' W 122°20'0 0.0
2018-Feb-21 21:26N 47°36' W 122°20'0 0.0
2018-Feb-21 20:53N 47°36' W 122°20'0 0.0
2018-Feb-21 20:29N 47°36' W 122°20'0 0.0
2018-Feb-21 19:59N 47°36' W 122°20'0 0.0
2018-Feb-21 19:29N 47°36' W 122°20'0 0.0
2018-Feb-21 17:41N 47°36' W 122°20'1 5.6
2018-Feb-21 17:31N 47°35' W 122°21'1 1.9
2018-Feb-21 17:00N 47°36' W 122°21'2 4.1
2018-Feb-21 16:31N 47°36' W 122°24'510.5
2018-Feb-21 16:01N 47°32' W 122°28'612.8
2018-Feb-21 15:31N 47°37' W 122°22'714.4
2018-Feb-21 15:01N 47°31' W 122°28'714.6
2018-Feb-21 14:30N 47°36' W 122°21'715.0
2018-Feb-21 14:01N 47°31' W 122°28'710.8
2018-Feb-21 13:19N 47°36' W 122°20'0 0.7
2018-Feb-21 13:00N 47°36' W 122°20'0 0.0
2018-Feb-21 12:29N 47°36' W 122°20'0 0.0
2018-Feb-21 11:59N 47°36' W 122°20'0 0.0
2018-Feb-21 11:29N 47°36' W 122°20'0 0.0
2018-Feb-21 10:59N 47°36' W 122°20'0 0.0
2018-Feb-21 10:29N 47°36' W 122°20'0 0.0
2018-Feb-21 09:59N 47°36' W 122°20'0 0.0
2018-Feb-21 09:29N 47°36' W 122°20'0 0.0
2018-Feb-21 08:53N 47°36' W 122°20'0 0.0
2018-Feb-21 08:29N 47°36' W 122°20'0 0.0
2018-Feb-21 07:53N 47°36' W 122°20'0 0.0
2018-Feb-21 07:29N 47°36' W 122°20'0 0.0
2018-Feb-21 06:59N 47°36' W 122°20'0 0.0
2018-Feb-21 06:23N 47°36' W 122°20'0 0.0
2018-Feb-21 05:41N 47°36' W 122°20'0 0.0
2018-Feb-21 05:29N 47°36' W 122°20'0 0.0
2018-Feb-21 04:53N 47°36' W 122°20'0 0.0
2018-Feb-21 04:29N 47°36' W 122°20'0 0.0
2018-Feb-21 03:56N 47°36' W 122°20'0 0.6
2018-Feb-21 03:30N 47°36' W 122°21'715.2
2018-Feb-21 03:01N 47°31' W 122°28'710.2
2018-Feb-21 02:17N 47°36' W 122°21'724.9
2018-Feb-21 02:01N 47°31' W 122°28'713.9
2018-Feb-21 01:30N 47°36' W 122°20'714.9
2018-Feb-21 01:01N 47°31' W 122°28'714.6
2018-Feb-21 00:30N 47°36' W 122°20'0 0.4
2018-Feb-21 00:00N 47°36' W 122°20'0 0.0
2018-Feb-20 23:20N 47°36' W 122°20'0 0.0
2018-Feb-20 22:56N 47°36' W 122°20'0 0.0
2018-Feb-20 22:26N 47°36' W 122°20'0 0.0
2018-Feb-20 18:11N 47°36' W 122°20'1 5.7
2018-Feb-20 18:00N 47°35' W 122°21'1 2.0
2018-Feb-20 17:28N 47°36' W 122°20'0 0.0
2018-Feb-20 17:00N 47°36' W 122°20'2 4.5
2018-Feb-20 16:31N 47°36' W 122°24'611.8
2018-Feb-20 16:01N 47°31' W 122°28'714.2
2018-Feb-20 15:30N 47°37' W 122°22'714.3
2018-Feb-20 15:01N 47°31' W 122°28'714.8
2018-Feb-20 14:30N 47°36' W 122°21'715.0
2018-Feb-20 14:01N 47°31' W 122°28'813.1
2018-Feb-20 13:26N 47°36' W 122°20'0 0.1
2018-Feb-20 11:41N 47°36' W 122°20'0 0.0
2018-Feb-20 04:26N 47°36' W 122°20'0 0.0
2018-Feb-20 03:53N 47°36' W 122°20'0 0.0
2018-Feb-20 03:29N 47°36' W 122°20'0 0.0
2018-Feb-20 02:59N 47°36' W 122°20'0 0.0
2018-Feb-20 02:29N 47°36' W 122°20'0 0.0
2018-Feb-20 01:59N 47°36' W 122°20'0 0.0
2018-Feb-20 01:29N 47°36' W 122°20'0 0.0
2018-Feb-20 00:59N 47°36' W 122°20'0 0.0
2018-Feb-20 00:29N 47°36' W 122°20'0 0.0
2018-Feb-20 00:00N 47°36' W 122°20'0 0.0
2018-Feb-19 23:29N 47°36' W 122°20'0 0.0
2018-Feb-19 22:57N 47°36' W 122°20'0 0.0
2018-Feb-19 22:26N 47°36' W 122°20'0 0.0
2018-Feb-19 21:16N 47°36' W 122°20'0 0.0
2018-Feb-19 20:59N 47°36' W 122°20'0 0.0
2018-Feb-19 20:24N 47°36' W 122°20'0 0.0
2018-Feb-19 19:59N 47°36' W 122°20'0 0.0
2018-Feb-19 19:25N 47°36' W 122°20'0 0.0
2018-Feb-19 19:00N 47°36' W 122°20'0 0.0
2018-Feb-19 18:26N 47°36' W 122°20'0 0.0
2018-Feb-19 17:58N 47°36' W 122°20'0 0.0
2018-Feb-19 17:29N 47°36' W 122°20'0 0.0
2018-Feb-19 16:50N 47°36' W 122°20'0 0.0
2018-Feb-19 16:29N 47°36' W 122°20'0 0.0
2018-Feb-19 15:59N 47°36' W 122°20'0 0.0
2018-Feb-19 15:26N 47°36' W 122°20'0 0.0
2018-Feb-19 14:59N 47°36' W 122°20'0 0.0
2018-Feb-19 14:20N 47°36' W 122°20'0 0.0
2018-Feb-19 13:59N 47°36' W 122°20'0 0.0
2018-Feb-19 13:29N 47°36' W 122°20'0 0.0
2018-Feb-19 12:59N 47°36' W 122°20'0 0.0
2018-Feb-19 12:29N 47°36' W 122°20'0 0.0
2018-Feb-19 11:59N 47°36' W 122°20'0 0.0
2018-Feb-19 11:29N 47°36' W 122°20'0 0.0
2018-Feb-19 10:47N 47°36' W 122°20'0 0.0
2018-Feb-19 06:08N 47°36' W 122°20'0 0.0
2018-Feb-19 05:47N 47°36' W 122°20'0 0.0
2018-Feb-19 05:29N 47°36' W 122°20'0 0.0
2018-Feb-19 04:59N 47°36' W 122°20'0 0.0
2018-Feb-19 03:44N 47°36' W 122°20'0 0.0
2018-Feb-19 03:23N 47°36' W 122°20'0 0.0
2018-Feb-19 02:59N 47°36' W 122°20'0 0.0
2018-Feb-19 02:26N 47°36' W 122°20'0 0.0
2018-Feb-19 01:56N 47°36' W 122°20'0 0.0
2018-Feb-19 01:23N 47°36' W 122°20'0 0.0
2018-Feb-19 00:59N 47°36' W 122°20'0 0.0
2018-Feb-18 17:23N 47°36' W 122°20'0 0.0
2018-Feb-18 16:59N 47°36' W 122°20'0 0.0
2018-Feb-18 16:23N 47°36' W 122°20'0 0.0
2018-Feb-18 15:59N 47°36' W 122°20'0 0.0
2018-Feb-18 15:23N 47°36' W 122°20'0 0.0
2018-Feb-18 14:59N 47°36' W 122°20'0 0.0
2018-Feb-18 14:29N 47°36' W 122°20'0 0.0
2018-Feb-18 13:59N 47°36' W 122°20'0 0.0
2018-Feb-18 13:29N 47°36' W 122°20'0 0.0
2018-Feb-18 12:59N 47°36' W 122°20'0 0.0
2018-Feb-18 12:23N 47°36' W 122°20'0 0.0
2018-Feb-18 10:59N 47°36' W 122°20'0 0.0
2018-Feb-18 10:29N 47°36' W 122°20'0 0.0
2018-Feb-18 09:59N 47°36' W 122°20'0 0.0
2018-Feb-18 09:23N 47°36' W 122°20'0 0.0
2018-Feb-18 08:59N 47°36' W 122°20'0 0.0
2018-Feb-18 08:23N 47°36' W 122°20'0 0.0
2018-Feb-18 04:53N 47°36' W 122°20'0 0.0
2018-Feb-18 04:23N 47°36' W 122°20'0 0.0
2018-Feb-18 03:47N 47°36' W 122°20'0 0.0
2018-Feb-18 03:26N 47°36' W 122°20'0 0.0
2018-Feb-18 02:59N 47°36' W 122°20'0 0.0
2018-Feb-18 02:29N 47°36' W 122°20'0 0.0
2018-Feb-18 01:53N 47°36' W 122°20'0 0.0
2018-Feb-18 01:29N 47°36' W 122°20'0 0.0
2018-Feb-18 00:59N 47°36' W 122°20'0 0.0
2018-Feb-18 00:23N 47°36' W 122°20'0 0.0
2018-Feb-17 23:56N 47°36' W 122°20'0 0.0
2018-Feb-17 23:29N 47°36' W 122°20'0 0.0
2018-Feb-17 22:59N 47°36' W 122°20'0 0.0
2018-Feb-17 20:23N 47°36' W 122°20'0 0.0
2018-Feb-17 18:59N 47°36' W 122°20'0 0.0
2018-Feb-17 18:05N 47°36' W 122°20'0 0.0
2018-Feb-17 17:59N 47°36' W 122°20'0 0.0
2018-Feb-17 16:35N 47°36' W 122°20'0 0.0
2018-Feb-17 16:17N 47°36' W 122°20'0 0.0
2018-Feb-17 15:59N 47°36' W 122°20'0 0.0
2018-Feb-17 14:47N 47°36' W 122°20'0 0.0
2018-Feb-17 14:23N 47°36' W 122°20'0 0.0
2018-Feb-17 13:59N 47°36' W 122°20'0 0.0
2018-Feb-17 13:23N 47°36' W 122°20'0 0.0
2018-Feb-17 12:59N 47°36' W 122°20'0 0.0
2018-Feb-17 12:29N 47°36' W 122°20'0 0.0
2018-Feb-17 11:59N 47°36' W 122°20'0 0.0
2018-Feb-17 08:17N 47°36' W 122°20'0 0.0
2018-Feb-17 07:53N 47°36' W 122°20'0 0.0
2018-Feb-17 07:08N 47°36' W 122°20'0 0.0
2018-Feb-17 06:59N 47°36' W 122°20'0 0.0
2018-Feb-17 06:29N 47°36' W 122°20'0 0.0
2018-Feb-17 05:44N 47°36' W 122°20'0 0.0
2018-Feb-17 03:29N 47°36' W 122°20'2 3.9
2018-Feb-17 03:00N 47°35' W 122°23'1 2.9
2018-Feb-17 02:31N 47°36' W 122°21'0 0.9
2018-Feb-17 01:59N 47°36' W 122°20'1 1.8
2018-Feb-17 01:30N 47°36' W 122°22'1 1.9
2018-Feb-17 01:00N 47°35' W 122°23'1 1.3
2018-Feb-17 00:31N 47°36' W 122°22'1 2.1
2018-Feb-16 23:57N 47°36' W 122°20'0 0.2
2018-Feb-16 23:28N 47°36' W 122°21'0 0.1
2018-Feb-16 19:19N 47°36' W 122°20'0 0.0
2018-Feb-16 18:55N 47°36' W 122°20'0 0.0
2018-Feb-16 17:38N 47°36' W 122°20'0 1.5
2018-Feb-16 17:30N 47°36' W 122°20'2 3.7
2018-Feb-16 17:00N 47°35' W 122°23'0 0.0
2018-Feb-16 16:30N 47°35' W 122°23'0 0.0
2018-Feb-16 16:00N 47°35' W 122°23'1 2.1
2018-Feb-16 15:30N 47°36' W 122°22'1 2.3
2018-Feb-16 15:00N 47°36' W 122°20'0 0.0
2018-Feb-16 14:26N 47°36' W 122°20'0 0.1
2018-Feb-16 13:51N 47°36' W 122°20'0 0.0
2018-Feb-16 09:25N 47°36' W 122°20'0 0.0
2018-Feb-16 08:37N 47°36' W 122°20'0 0.0
2018-Feb-16 08:22N 47°36' W 122°20'0 0.0
2018-Feb-16 07:37N 47°36' W 122°20'0 0.0
2018-Feb-16 03:28N 47°36' W 122°20'2 3.9
2018-Feb-16 03:00N 47°35' W 122°23'1 1.1
2018-Feb-16 02:31N 47°36' W 122°22'1 2.2
2018-Feb-16 01:55N 47°36' W 122°20'1 1.9
2018-Feb-16 01:31N 47°36' W 122°21'1 2.1
2018-Feb-16 01:00N 47°35' W 122°23'1 1.9
2018-Feb-16 00:31N 47°36' W 122°22'1 1.7
2018-Feb-15 23:55N 47°36' W 122°20'1 1.3
2018-Feb-15 23:30N 47°36' W 122°21'1 1.2
2018-Feb-15 23:00N 47°36' W 122°20'0 0.0
2018-Feb-15 22:30N 47°36' W 122°20'0 0.0
2018-Feb-15 22:00N 47°36' W 122°20'0 0.0
2018-Feb-15 21:27N 47°36' W 122°20'0 0.0
2018-Feb-15 20:34N 47°36' W 122°20'0 0.0
2018-Feb-15 20:28N 47°36' W 122°20'0 0.0
2018-Feb-15 19:58N 47°36' W 122°20'0 0.0
2018-Feb-15 19:29N 47°36' W 122°20'0 0.0
2018-Feb-15 18:59N 47°36' W 122°20'0 0.0
2018-Feb-15 18:29N 47°36' W 122°20'0 0.0
2018-Feb-15 17:56N 47°36' W 122°20'0 0.4
2018-Feb-15 17:19N 47°36' W 122°21'2 5.6
2018-Feb-15 17:01N 47°35' W 122°23'0 0.0
2018-Feb-15 16:30N 47°35' W 122°23'0 0.0
2018-Feb-15 16:00N 47°35' W 122°23'1 1.2
2018-Feb-15 15:31N 47°36' W 122°22'1 2.4
2018-Feb-15 14:59N 47°36' W 122°21'0 0.1
2018-Feb-15 14:23N 47°36' W 122°20'1 2.6
2018-Feb-15 14:01N 47°36' W 122°22'1 2.0
2018-Feb-15 13:28N 47°36' W 122°20'0 0.0
2018-Feb-15 12:58N 47°36' W 122°20'0 0.0
2018-Feb-15 12:28N 47°36' W 122°20'0 0.0
2018-Feb-15 11:58N 47°36' W 122°20'0 0.0
2018-Feb-15 08:55N 47°36' W 122°20'0 0.0
2018-Feb-15 08:28N 47°36' W 122°20'0 0.0
2018-Feb-15 07:58N 47°36' W 122°20'0 0.0
2018-Feb-15 07:28N 47°36' W 122°20'0 0.0
2018-Feb-15 06:55N 47°36' W 122°20'0 0.0
2018-Feb-15 06:16N 47°36' W 122°20'0 0.0
2018-Feb-15 05:55N 47°36' W 122°20'0 0.0
2018-Feb-15 05:28N 47°36' W 122°20'0 0.0
2018-Feb-15 03:26N 47°36' W 122°20'2 4.3
2018-Feb-15 03:00N 47°35' W 122°23'1 1.9
2018-Feb-15 02:31N 47°36' W 122°22'1 1.4
2018-Feb-15 01:54N 47°36' W 122°20'0 0.7
2018-Feb-15 01:31N 47°36' W 122°21'2 3.0
2018-Feb-15 01:00N 47°35' W 122°23'0 0.9
2018-Feb-15 00:31N 47°36' W 122°22'1 2.2
2018-Feb-14 23:54N 47°36' W 122°20'1 1.7
2018-Feb-14 23:30N 47°36' W 122°21'1 1.3
2018-Feb-14 22:57N 47°36' W 122°20'0 0.0
2018-Feb-14 22:25N 47°36' W 122°20'0 0.0
2018-Feb-14 20:27N 47°36' W 122°20'0 0.0
2018-Feb-14 19:33N 47°36' W 122°20'0 0.0
2018-Feb-14 18:37N 47°36' W 122°20'0 0.0
2018-Feb-14 18:18N 47°36' W 122°20'1 3.4
2018-Feb-14 18:01N 47°35' W 122°21'1 1.4
2018-Feb-14 17:17N 47°36' W 122°21'2 5.9
2018-Feb-14 17:01N 47°35' W 122°23'0 0.0
2018-Feb-14 16:30N 47°35' W 122°23'0 0.0
2018-Feb-14 15:59N 47°35' W 122°23'1 1.1
2018-Feb-14 15:31N 47°36' W 122°22'1 2.3
2018-Feb-14 14:58N 47°36' W 122°21'0 0.3
2018-Feb-14 14:22N 47°36' W 122°21'0 0.9
2018-Feb-14 14:00N 47°36' W 122°21'1 1.2
2018-Feb-14 13:29N 47°36' W 122°20'0 0.0
2018-Feb-14 11:57N 47°36' W 122°20'0 0.0
2018-Feb-14 10:15N 47°36' W 122°20'0 0.0
2018-Feb-14 09:57N 47°36' W 122°20'0 0.0
2018-Feb-14 08:21N 47°36' W 122°20'0 0.0
2018-Feb-14 08:00N 47°36' W 122°20'0 0.0
2018-Feb-14 07:24N 47°36' W 122°20'0 0.0
2018-Feb-14 07:00N 47°36' W 122°20'0 0.0
2018-Feb-14 06:27N 47°36' W 122°20'0 0.0
2018-Feb-14 05:57N 47°36' W 122°20'0 0.0
2018-Feb-14 05:09N 47°36' W 122°20'0 0.0
2018-Feb-14 04:48N 47°36' W 122°20'0 0.0
2018-Feb-14 04:30N 47°36' W 122°20'0 0.0
2018-Feb-14 04:00N 47°36' W 122°20'0 0.0
2018-Feb-14 03:27N 47°36' W 122°20'2 4.1
2018-Feb-14 03:00N 47°35' W 122°23'1 1.8
2018-Feb-14 02:31N 47°36' W 122°22'1 1.3
2018-Feb-14 01:53N 47°36' W 122°21'0 0.4
2018-Feb-14 01:30N 47°36' W 122°21'2 3.1
2018-Feb-14 01:00N 47°35' W 122°23'1 1.6
2018-Feb-14 00:31N 47°36' W 122°22'1 1.2
2018-Feb-13 23:54N 47°36' W 122°21'1 1.4
2018-Feb-13 23:31N 47°36' W 122°22'1 0.2
2018-Feb-13 19:12N 47°36' W 122°20'0 0.0
2018-Feb-13 19:00N 47°36' W 122°20'0 0.0
2018-Feb-13 17:33N 47°36' W 122°20'0 3.9
2018-Feb-13 17:30N 47°36' W 122°20'2 3.7
2018-Feb-13 17:01N 47°35' W 122°23'0 0.0
2018-Feb-13 16:31N 47°35' W 122°23'0 0.0
2018-Feb-13 16:00N 47°35' W 122°23'1 1.6
2018-Feb-13 15:31N 47°36' W 122°22'1 2.1
2018-Feb-13 14:59N 47°36' W 122°20'0 0.1
2018-Feb-13 14:23N 47°36' W 122°20'1 1.7
2018-Feb-13 14:00N 47°36' W 122°21'1 1.4
2018-Feb-13 13:30N 47°36' W 122°20'0 0.0
2018-Feb-13 12:45N 47°36' W 122°20'0 0.0
2018-Feb-13 12:28N 47°36' W 122°20'0 0.0
2018-Feb-13 11:59N 47°36' W 122°20'0 0.0
2018-Feb-13 11:27N 47°36' W 122°20'0 0.0
2018-Feb-13 10:57N 47°36' W 122°20'0 0.0
2018-Feb-13 10:20N 47°36' W 122°20'0 0.0
2018-Feb-13 09:59N 47°36' W 122°20'0 0.0
2018-Feb-13 09:27N 47°36' W 122°20'0 0.0
2018-Feb-13 09:00N 47°36' W 122°20'0 0.0
2018-Feb-13 08:30N 47°36' W 122°20'0 0.0
2018-Feb-13 08:00N 47°36' W 122°20'0 0.0
2018-Feb-13 07:30N 47°36' W 122°20'0 0.0
2018-Feb-13 07:00N 47°36' W 122°20'0 0.0
2018-Feb-13 06:30N 47°36' W 122°20'0 0.0
2018-Feb-13 06:00N 47°36' W 122°20'0 0.0
2018-Feb-13 05:30N 47°36' W 122°20'0 0.0
2018-Feb-13 05:00N 47°36' W 122°20'0 0.0
2018-Feb-13 04:29N 47°36' W 122°20'0 0.0
2018-Feb-13 04:00N 47°36' W 122°20'0 0.0
2018-Feb-13 03:30N 47°36' W 122°20'2 3.7
2018-Feb-13 03:00N 47°35' W 122°23'1 2.8
2018-Feb-13 02:30N 47°36' W 122°21'1 1.0
2018-Feb-13 01:54N 47°36' W 122°20'1 1.8
2018-Feb-13 01:30N 47°36' W 122°21'1 2.2
2018-Feb-13 01:00N 47°35' W 122°23'1 1.5
2018-Feb-13 00:30N 47°36' W 122°22'1 2.3
2018-Feb-12 23:58N 47°36' W 122°20'1 2.9
2018-Feb-12 23:30N 47°36' W 122°22'1 2.6
2018-Feb-12 22:58N 47°36' W 122°20'0 0.0
2018-Feb-12 22:28N 47°36' W 122°20'0 0.0
2018-Feb-12 21:58N 47°36' W 122°20'0 0.0
2018-Feb-12 21:28N 47°36' W 122°20'0 0.0
2018-Feb-12 20:28N 47°36' W 122°20'0 0.0
2018-Feb-12 19:58N 47°36' W 122°20'0 0.0
2018-Feb-12 19:28N 47°36' W 122°20'0 0.0
2018-Feb-12 18:58N 47°36' W 122°20'0 0.0
2018-Feb-12 18:10N 47°36' W 122°20'0 0.0
2018-Feb-12 17:40N 47°36' W 122°20'0 0.9
2018-Feb-12 17:17N 47°36' W 122°21'2 6.1
2018-Feb-12 17:00N 47°35' W 122°23'0 0.0
2018-Feb-12 16:29N 47°35' W 122°23'0 0.0
2018-Feb-12 16:01N 47°35' W 122°23'1 1.3
2018-Feb-12 15:30N 47°36' W 122°22'1 2.0
2018-Feb-12 14:57N 47°36' W 122°21'0 0.2
2018-Feb-12 14:23N 47°36' W 122°20'0 0.1
2018-Feb-12 14:00N 47°36' W 122°20'0 0.4
2018-Feb-12 13:30N 47°36' W 122°20'0 0.0
2018-Feb-12 12:57N 47°36' W 122°20'0 0.0
2018-Feb-12 12:30N 47°36' W 122°20'0 0.0
2018-Feb-12 12:00N 47°36' W 122°20'0 0.0
2018-Feb-12 11:29N 47°36' W 122°20'0 0.0
2018-Feb-12 10:59N 47°36' W 122°20'  

Dump ship's entire track history